Latest Weather Observations for Bombala AWS

IDN60801

Issued at 12:12 pm EDT Thursday 21 November 2019 (issued every 10 minutes, with the page automatically refreshed every 10 minutes)

About weather observations | Map of weather stations | Latest weather observations for NSW | Other Formats
Station Details ID: 070328 Name: BOMBALA AWS Lat: -37.00 Lon: 149.23 Height: 760.5 m
Data from the previous 72 hours. | See also: Recent months at Bombala AWS
Date/Time
EDT
Temp
°C
App
Temp
°C
Dew
Point
°C
Rel
Hum
%
Delta-T
°C
Wind Press
QNH
hPa
Press
MSL
hPa
Rain since
9am
mm
Dir  Spd
km/h
Gust
km/h
Spd
kts
Gust
kts
21/12:00pm 35.3 24.1 -0.9 10 18.3 N 48 65 26 35 1011.6 1009.9 0.0
21/11:31am 35.1 25.4 0.2 11 17.9 NNW 41 59 22 32 1011.9 1010.2 0.0
21/11:30am 35.6 25.9 0.6 11 18.1 NNW 41 57 22 31 1012.1 1010.4 0.0
21/11:00am 33.9 24.4 1.6 13 16.8 NNW 41 52 22 28 1012.6 1010.8 0.0
21/10:30am 33.2 24.9 2.1 14 16.3 NNW 35 44 19 24 1013.0 1011.3 0.0
21/10:00am 31.6 25.3 3.6 17 14.9 N 26 39 14 21 1013.5 1011.8 0.0
21/09:30am 30.0 22.7 4.6 20 13.6 NNW 32 39 17 21 1013.8 1012.2 0.0
21/09:00am 27.9 21.1 4.9 23 12.2 NNW 30 39 16 21 1014.4 1012.7 0.0
21/08:30am 26.1 19.8 5.7 27 10.9 NNW 28 35 15 19 1014.6 1012.9 0.0
21/08:00am 22.9 19.9 7.8 38 8.2 NW 13 19 7 10 1014.8 1013.1 0.0
21/07:30am 19.8 17.1 8.8 49 6.0 NW 13 15 7 8 1014.8 1013.1 0.0
21/07:00am 15.5 13.2 9.0 65 3.5 NW 11 13 6 7 1014.7 1013.0 0.0
21/06:30am 13.6 11.1 8.0 69 2.9 NW 11 13 6 7 1014.7 1013.0 0.0
21/06:00am 12.6 11.6 8.9 78 1.9 NW 4 6 2 3 1014.5 1012.8 0.0
21/05:30am 13.2 11.7 9.3 77 2.1 NNW 7 9 4 5 1014.0 1012.3 0.0
21/05:00am 12.0 10.4 8.8 81 1.7 NNW 7 9 4 5 1013.8 1012.2 0.0
21/04:30am 10.8 8.9 9.2 90 0.8 NW 9 11 5 6 1014.1 1012.4 0.0
21/04:00am 11.3 9.6 9.7 90 0.8 NNW 9 11 5 6 1014.1 1012.4 0.0
21/03:30am 11.2 10.0 9.6 90 0.8 N 6 7 3 4 1014.4 1012.7 0.0
21/03:00am 11.7 10.3 9.6 87 1.1 NW 7 7 4 4 1014.6 1012.9 0.0
21/02:30am 12.4 11.4 10.3 87 1.1 NW 6 6 3 3 1014.9 1013.2 0.0
21/02:00am 12.2 10.9 10.1 87 1.1 NW 7 9 4 5 1014.9 1013.2 0.0
21/01:30am 11.8 10.4 9.7 87 1.1 NW 7 7 4 4 1015.4 1013.7 0.0
21/01:00am 12.1 11.0 10.0 87 1.1 NW 6 7 3 4 1015.6 1013.9 0.0
21/12:30am 11.6 10.5 10.0 90 0.8 NW 6 7 3 4 1015.9 1014.2 0.0
21/12:00am 12.8 12.3 10.7 87 1.1 NE 4 6 2 3 1016.0 1014.3 0.0
 
Date/Time
EDT
Temp
°C
App
Temp
°C
Dew
Point
°C
Rel
Hum
%
Delta-T
°C
Wind Press
QNH
hPa
Press
MSL
hPa
Rain since
9am
mm
Dir  Spd
km/h
Gust
km/h
Spd
kts
Gust
kts
20/11:30pm 13.1 13.0 10.8 86 1.3 ENE 2 4 1 2 1016.4 1014.8 0.0
20/11:00pm 13.2 13.2 11.3 88 1.0 ENE 2 4 1 2 1016.5 1014.9 0.0
20/10:30pm 13.2 12.3 10.7 85 1.4 ENE 6 6 3 3 1016.6 1015.0 0.0
20/10:00pm 14.5 13.7 11.1 80 1.9 N 6 9 3 5 1016.6 1015.0 0.0
20/09:30pm 14.3 13.6 11.3 82 1.7 ENE 6 7 3 4 1016.6 1015.0 0.0
20/09:00pm 14.6 13.7 11.2 80 1.9 ENE 7 11 4 6 1016.6 1015.0 0.0
20/08:30pm 15.5 13.9 11.5 77 2.2 NE 11 15 6 8 1016.6 1015.0 0.0
20/08:00pm 16.4 14.4 11.6 73 2.7 NE 13 19 7 10 1016.5 1014.9 0.0
20/07:30pm 18.1 16.1 11.4 65 3.8 NE 13 17 7 9 1016.5 1014.9 0.0
20/07:00pm 19.9 17.6 11.7 59 4.7 ENE 15 19 8 10 1015.9 1014.2 0.0
20/06:30pm 21.3 18.8 11.1 52 5.8 ENE 15 20 8 11 1015.8 1014.1 0.0
20/06:00pm 23.0 20.5 11.1 47 6.9 ENE 15 20 8 11 1015.5 1013.8 0.0
20/05:30pm 23.7 21.0 10.4 43 7.6 ENE 15 20 8 11 1015.4 1013.7 0.0
20/05:00pm 24.9 22.1 10.0 39 8.5 ENE 15 22 8 12 1015.2 1013.6 0.0
20/04:30pm 25.6 22.0 9.8 37 9.0 ENE 19 28 10 15 1015.0 1013.4 0.0
20/04:00pm 26.9 23.4 8.8 32 10.2 ENE 17 24 9 13 1014.7 1013.0 0.0
20/03:30pm 26.8 23.7 7.3 29 10.7 ENE 13 22 7 12 1014.8 1013.1 0.0
20/03:00pm 26.7 23.4 6.2 27 11.1 NNE 13 20 7 11 1014.9 1013.2 0.0
20/02:30pm 26.8 24.3 4.0 23 11.9 NE 6 13 3 7 1015.1 1013.5 0.0
20/02:00pm 25.7 21.6 2.4 22 11.7 N 13 20 7 11 1015.4 1013.7 0.0
20/01:30pm 25.4 21.9 3.4 24 11.2 NW 11 20 6 11 1015.5 1013.8 0.0
20/01:00pm 24.6 21.8 3.3 25 10.8 N 7 24 4 13 1015.8 1014.1 0.0
20/12:30pm 23.4 20.8 3.4 27 10.1 N 6 15 3 8 1016.1 1014.4 0.0
20/12:00pm 22.4 19.5 4.5 31 9.1 NW 9 19 5 10 1016.4 1014.8 0.0
20/11:30am 21.5 18.8 5.4 35 8.3 NNW 9 19 5 10 1016.9 1015.2 0.0
20/11:00am 19.5 16.6 6.3 42 6.8 N 11 22 6 12 1017.0 1015.3 0.0
20/10:30am 18.4 16.0 7.2 48 5.9 NNE 9 20 5 11 1017.0 1015.3 0.0
20/10:00am 17.4 14.6 8.5 56 4.7 N 13 20 7 11 1017.1 1015.4 0.0
20/09:30am 15.4 12.6 8.4 63 3.7 N 13 22 7 12 1017.2 1015.5 0.0
20/09:00am 14.3 11.9 8.5 68 3.0 NNE 11 19 6 10 1017.5 1015.9 0.0
20/08:30am 12.0 10.1 9.0 82 1.6 NNE 9 15 5 8 1017.5 1015.9 0.0
20/08:00am 9.0 7.6 9.0 100 0.0 N 6 9 3 5 1017.6 1016.0 0.0
20/07:30am 8.2 6.5 8.2 100 0.0 N 7 13 4 7 1017.3 1015.7 0.0
20/07:00am 7.0 5.0 7.0 100 0.0 NNW 7 11 4 6 1016.9 1015.2 0.0
20/06:30am 5.0 3.5 5.0 100 0.0 SE 2 7 1 4 1017.0 1015.3 0.0
20/06:00am 3.8 2.4 3.8 100 0.0 CALM 0 0 0 0 1017.0 1015.3 0.0
20/05:30am 3.0 1.5 2.9 99 0.0 CALM 0 0 0 0 1016.9 1015.2 0.0
20/05:00am 5.1 4.0 5.0 99 0.0 CALM 0 0 0 0 1016.5 1014.9 0.0
20/04:30am 5.0 3.9 4.9 99 0.0 CALM 0 0 0 0 1016.5 1014.9 0.0
20/04:00am 5.5 4.5 5.4 99 0.0 CALM 0 0 0 0 1016.5 1014.9 0.0
20/03:30am 6.1 5.2 6.0 99 0.0 CALM 0 0 0 0 1016.6 1015.0 0.0
20/03:00am 6.7 5.9 6.7 100 0.0 CALM 0 0 0 0 1016.4 1014.8 0.0
20/02:30am 6.9 6.1 6.3 96 0.3 CALM 0 0 0 0 1016.5 1014.9 0.0
20/02:00am 7.3 6.5 6.6 95 0.3 CALM 0 0 0 0 1016.5 1014.9 0.0
20/01:30am 7.1 6.2 5.9 92 0.6 CALM 0 0 0 0 1016.9 1015.2 0.0
20/01:00am 8.0 7.3 7.1 94 0.4 CALM 0 0 0 0 1017.2 1015.5 0.0
20/12:30am 8.1 7.4 7.0 93 0.5 CALM 0 0 0 0 1017.4 1015.8 0.0
20/12:00am 8.3 7.7 7.4 94 0.4 CALM 0 0 0 0 1017.5 1015.9 0.0
 
Date/Time
EDT
Temp
°C
App
Temp
°C
Dew
Point
°C
Rel
Hum
%
Delta-T
°C
Wind Press
QNH
hPa
Press
MSL
hPa
Rain since
9am
mm
Dir  Spd
km/h
Gust
km/h
Spd
kts
Gust
kts
19/11:30pm 8.5 6.5 7.1 91 0.7 SSE 7 9 4 5 1017.5 1015.9 0.0
19/11:00pm 9.5 7.7 7.3 86 1.1 S 6 7 3 4 1017.6 1016.0 0.0
19/10:30pm 10.1 8.2 6.8 80 1.6 ESE 6 9 3 5 1017.5 1015.9 0.0
19/10:00pm 10.5 8.0 6.6 77 1.9 SE 9 15 5 8 1017.3 1015.7 0.0
19/09:30pm 10.7 7.4 6.3 74 2.1 SSE 13 13 7 7 1016.9 1015.2 0.0
19/09:00pm 11.7 7.9 5.6 66 3.0 SSE 15 17 8 9 1016.4 1014.8 0.0
19/08:30pm 12.3 8.7 4.8 60 3.6 SSE 13 17 7 9 1016.1 1014.4 0.0
19/08:00pm 13.6 9.5 4.2 53 4.5 SSE 15 22 8 12 1015.9 1014.2 0.0
19/07:30pm 15.1 10.6 4.2 48 5.3 SE 17 24 9 13 1015.6 1013.9 0.0
19/07:00pm 16.7 11.7 4.7 45 5.9 SE 20 26 11 14 1014.8 1013.1 0.0
19/06:30pm 17.5 12.2 5.1 44 6.2 SSE 22 32 12 17 1014.3 1012.6 0.0
19/06:00pm 18.6 12.8 6.1 44 6.4 SSE 26 32 14 17 1013.6 1011.9 0.0
19/05:30pm 19.1 13.1 6.9 45 6.4 SSE 28 35 15 19 1012.9 1011.2 0.0
19/05:00pm 20.5 15.2 8.5 46 6.5 SSE 26 33 14 18 1012.6 1010.8 0.0
19/04:30pm 20.5 14.8 8.5 46 6.5 SSE 28 35 15 19 1012.1 1010.4 0.0
19/04:00pm 21.4 15.5 9.0 45 6.8 SE 30 41 16 22 1011.8 1010.1 0.0
19/03:30pm 21.7 15.7 8.6 43 7.2 SE 30 39 16 21 1011.5 1009.7 0.0
19/03:00pm 23.2 17.8 8.1 38 8.3 SE 26 37 14 20 1011.4 1009.6 0.0
19/02:30pm 23.5 17.4 6.7 34 9.0 SSE 28 39 15 21 1011.3 1009.5 0.0
19/02:00pm 24.6 18.8 6.4 31 9.8 SSE 26 37 14 20 1011.2 1009.4 0.0
19/01:30pm 24.3 17.7 6.1 31 9.7 SE 30 43 16 23 1010.9 1009.2 0.0
19/01:00pm 25.2 20.4 5.4 28 10.5 SE 20 35 11 19 1010.8 1009.1 0.0
19/12:30pm 26.1 22.9 -0.8 17 12.8 W 6 24 3 13 1011.0 1009.3 0.0
19/12:00pm 26.1 20.2 -0.8 17 12.8 W 20 32 11 17 1011.3 1009.5 0.0
19/11:30am 25.7 20.0 0.4 19 12.3 W 20 32 11 17 1011.5 1009.7 0.0
19/11:00am 25.1 17.0 -0.1 19 12.1 W 32 43 17 23 1011.6 1009.9 0.0
19/10:30am 24.5 16.8 0.1 20 11.7 W 30 41 16 22 1011.7 1010.0 0.0
19/10:00am 24.1 16.1 0.4 21 11.4 W 32 39 17 21 1011.8 1010.1 0.0
19/09:30am 22.6 17.6 1.6 25 10.2 NW 17 30 9 16 1012.0 1010.3 0.0
19/09:00am 20.9 16.0 1.7 28 9.2 NW 17 24 9 13 1012.4 1010.7 0.0
19/08:30am 19.1 15.8 2.5 33 8.0 NNW 9 20 5 11 1012.6 1010.8 0.0
19/08:00am 14.4 12.8 4.7 52 4.7 N 2 6 1 3 1012.7 1010.9 0.0
19/07:30am 11.1 9.3 5.2 67 2.8 SSE 4 4 2 2 1012.7 1010.9 0.0
19/07:00am 7.7 5.2 3.7 76 1.8 SSE 6 7 3 4 1012.6 1010.8 0.0
19/06:30am 8.0 6.5 3.1 71 2.2 CALM 0 0 0 0 1012.2 1010.5 0.0
19/06:00am 6.9 5.0 3.0 76 1.7 N 2 4 1 2 1012.0 1010.3 0.0
19/05:30am 6.8 5.2 2.7 75 1.8 CALM 0 2 0 1 1011.8 1010.1 0.0
19/05:00am 7.2 5.7 3.1 75 1.8 CALM 0 0 0 0 1011.7 1010.0 0.0
19/04:30am 7.7 6.3 3.7 76 1.8 CALM 0 0 0 0 1011.6 1009.9 0.0
19/04:00am 7.5 6.1 3.6 76 1.7 CALM 0 0 0 0 1011.7 1010.0 0.0
19/03:30am 9.5 7.6 2.6 62 3.1 N 2 2 1 1 1011.7 1010.0 0.0
19/03:00am 9.3 7.1 3.5 67 2.6 N 4 6 2 3 1011.8 1010.1 0.0
19/02:30am 10.8 9.1 3.8 62 3.2 N 2 4 1 2 1012.0 1010.3 0.0
19/02:00am 10.6 8.2 4.1 64 3.0 N 6 7 3 4 1012.2 1010.5 0.0
19/01:30am 11.7 8.6 3.7 58 3.7 N 9 11 5 6 1012.6 1010.8 0.0
19/01:00am 10.8 9.1 5.8 71 2.4 NNE 4 9 2 5 1013.1 1011.4 0.0
19/12:30am 12.8 10.6 6.2 64 3.3 NNE 7 9 4 5 1013.1 1011.4 0.0
19/12:00am 10.9 9.2 7.6 80 1.7 N 6 9 3 5 1013.4 1011.7 0.0
 
Date/Time
EDT
Temp
°C
App
Temp
°C
Dew
Point
°C
Rel
Hum
%
Delta-T
°C
Wind Press
QNH
hPa
Press
MSL
hPa
Rain since
9am
mm
Dir  Spd
km/h
Gust
km/h
Spd
kts
Gust
kts
18/11:30pm 10.4 8.9 6.9 79 1.7 WSW 4 4 2 2 1013.8 1012.2 0.0
18/11:00pm 11.5 10.9 7.2 75 2.2 CALM 0 4 0 2 1014.2 1012.5 0.0
18/10:30pm 11.7 10.5 6.6 71 2.5 WSW 2 6 1 3 1014.5 1012.8 0.0
18/10:00pm 13.9 12.7 8.1 68 3.0 SSE 4 6 2 3 1014.4 1012.7 0.0
18/09:30pm 13.7 12.0 7.7 67 3.1 SE 6 6 3 3 1014.1 1012.4 0.0
18/09:00pm 14.2 13.6 7.3 63 3.5 CALM 0 0 0 0 1014.1 1012.4 0.0
18/08:30pm 15.9 15.2 8.4 61 4.0 E 2 6 1 3 1013.7 1012.0 0.0
18/08:00pm 16.3 14.8 8.3 59 4.2 ESE 6 9 3 5 1013.8 1012.2 0.0
18/07:30pm 18.2 16.2 8.5 53 5.2 ESE 9 13 5 7 1013.5 1011.8 0.0
18/07:00pm 19.4 15.2 8.4 49 5.9 SE 20 28 11 15 1013.2 1011.5 0.0
18/06:30pm 20.1 14.7 8.1 46 6.5 SE 26 33 14 18 1012.8 1011.1 0.0
18/06:00pm 20.7 16.4 8.0 44 6.9 SE 20 30 11 16 1012.3 1010.6 0.0
18/05:37pm 23.8 19.6 5.7 31 9.5 SW 17 33 9 18 1011.9 1010.2 0.0
18/05:30pm 24.7 20.0 0.9 21 11.5 SW 15 30 8 16 1011.8 1010.1 0.0
18/05:00pm 26.1 19.6 0.0 18 12.6 WSW 24 35 13 19 1011.7 1010.0 0.0
18/04:30pm 25.9 20.1 -0.2 18 12.5 WNW 20 30 11 16 1011.8 1010.1 0.0
18/04:00pm 26.0 21.5 -0.1 18 12.6 WNW 13 30 7 16 1012.1 1010.4 0.0
18/03:30pm 25.4 21.4 0.8 20 12.0 W 11 20 6 11 1012.4 1010.7 0.0
18/03:00pm 24.5 20.4 0.1 20 11.7 SW 11 20 6 11 1012.9 1011.2 0.0
18/02:30pm 24.2 20.7 1.2 22 11.2 WSW 9 20 5 11 1013.3 1011.6 0.0
18/02:00pm 22.9 17.7 0.1 22 10.8 WSW 17 28 9 15 1014.0 1012.3 0.0
18/01:30pm 22.8 16.7 0.6 23 10.6 W 22 33 12 18 1014.2 1012.5 0.0
18/01:00pm 22.1 15.9 0.0 23 10.3 W 22 41 12 22 1014.5 1012.8 0.0
18/12:30pm 22.7 15.4 -0.1 22 10.7 W 28 39 15 21 1014.6 1012.9 0.0

Other formats

Comma delimited format used in spreadsheet applications
http://www.bom.gov.au/fwo/IDN60801/IDN60801.94929.axf

JavaScript Object Notation format (JSON) in row-major order
http://www.bom.gov.au/fwo/IDN60801/IDN60801.94929.json

Data quality

Most of these data are generated automatically and are frequently updated. Quality checks on data are not normally performed. It is possible for incorrect values to appear. Refer to information at About Latest Weather Observations and please check the disclaimer before using these data.